createdAt,value
2022-09-28T00:01:17.418Z,8.77
2022-09-28T00:03:46.512Z,8.27
2022-09-28T00:06:16.979Z,10.30
2022-09-28T00:08:44.298Z,8.60
2022-09-28T00:11:15.491Z,8.93
2022-09-28T00:13:43.854Z,9.23
2022-09-28T00:16:17.351Z,9.02
2022-09-28T00:18:45.570Z,8.70
2022-09-28T00:21:28.895Z,10.43
2022-09-28T00:26:50.408Z,8.48
2022-09-28T00:29:28.361Z,9.32
2022-09-28T00:32:00.104Z,8.52
2022-09-28T00:34:31.875Z,10.55
2022-09-28T00:37:00.640Z,8.65
2022-09-28T00:39:27.892Z,8.52
2022-09-28T00:41:54.996Z,11.32
2022-09-28T00:44:33.952Z,8.30
2022-09-28T00:47:41.584Z,9.10
2022-09-28T00:50:31.132Z,9.95
2022-09-28T00:53:16.010Z,9.48
2022-09-28T00:55:52.026Z,7.90
2022-09-28T00:58:30.824Z,8.45
2022-09-28T01:00:59.640Z,8.65
2022-09-28T01:03:28.897Z,8.32
2022-09-28T01:05:59.581Z,9.15
2022-09-28T01:08:29.310Z,8.23
2022-09-28T01:10:59.168Z,9.98
2022-09-28T01:13:27.167Z,10.20
2022-09-28T01:16:12.814Z,10.45
2022-09-28T01:19:03.991Z,9.52
2022-09-28T01:21:51.669Z,10.02
2022-09-28T01:24:46.528Z,10.50
2022-09-28T01:27:26.873Z,10.70
2022-09-28T01:30:10.569Z,11.68
2022-09-28T01:33:04.130Z,11.98
2022-09-28T01:38:23.564Z,11.48
2022-09-28T01:40:52.185Z,12.88
2022-09-28T01:43:26.955Z,14.00
2022-09-28T01:46:05.762Z,12.38
2022-09-28T01:48:46.999Z,12.23
2022-09-28T01:51:28.268Z,12.63
2022-09-28T01:54:05.768Z,12.13
2022-09-28T01:56:58.587Z,12.90
2022-09-28T01:59:30.794Z,14.33
2022-09-28T02:02:14.830Z,13.82
2022-09-28T02:04:50.840Z,14.63
2022-09-28T02:07:26.163Z,14.70
2022-09-28T02:10:00.670Z,14.68
2022-09-28T02:12:40.290Z,15.15
2022-09-28T02:15:55.257Z,15.85
2022-09-28T02:18:22.192Z,13.80
2022-09-28T02:21:01.018Z,14.80
2022-09-28T02:23:33.693Z,16.17
2022-09-28T02:26:10.672Z,25.05
2022-09-28T02:28:37.879Z,41.78
2022-09-28T02:31:04.912Z,16.00
2022-09-28T02:33:38.324Z,14.93
2022-09-28T02:36:05.908Z,15.15
2022-09-28T02:38:33.215Z,16.70
2022-09-28T02:41:16.514Z,15.05
2022-09-28T02:47:04.850Z,18.50
2022-09-28T02:49:49.581Z,15.82
2022-09-28T02:52:49.003Z,17.38
2022-09-28T02:55:48.588Z,17.75
2022-09-28T02:59:03.439Z,17.90
2022-09-28T03:02:17.270Z,17.92
2022-09-28T03:05:21.856Z,24.17
2022-09-28T03:08:39.761Z,21.80
2022-09-28T03:11:27.668Z,22.30
2022-09-28T03:14:14.084Z,20.00
2022-09-28T03:19:42.062Z,20.75
2022-09-28T03:22:16.652Z,20.00
2022-09-28T03:24:46.272Z,21.73
2022-09-28T03:27:29.726Z,19.23
2022-09-28T03:30:06.932Z,20.50
2022-09-28T03:32:41.203Z,20.42
2022-09-28T03:35:23.527Z,18.50
2022-09-28T03:38:02.195Z,19.90
2022-09-28T03:40:31.628Z,19.35
2022-09-28T03:43:05.219Z,17.30
2022-09-28T03:45:37.550Z,20.50
2022-09-28T03:48:25.034Z,18.42
2022-09-28T03:51:12.071Z,19.80
2022-09-28T03:53:48.533Z,21.80
2022-09-28T03:56:33.193Z,19.80
2022-09-28T03:59:10.237Z,19.27
2022-09-28T04:01:48.657Z,19.38
2022-09-28T04:04:37.545Z,20.38
2022-09-28T04:07:22.452Z,20.15
2022-09-28T04:09:54.608Z,17.45
2022-09-28T04:12:32.369Z,19.65
2022-09-28T04:15:17.247Z,19.10
2022-09-28T04:18:10.015Z,17.77
2022-09-28T04:20:50.044Z,17.03
2022-09-28T04:23:32.686Z,16.35
2022-09-28T04:26:05.938Z,16.95
2022-09-28T04:29:06.623Z,16.23
2022-09-28T04:31:55.099Z,21.90
2022-09-28T04:34:35.738Z,19.65
2022-09-28T04:37:17.951Z,19.13
2022-09-28T04:39:48.704Z,21.15
2022-09-28T04:42:27.944Z,18.35
2022-09-28T04:45:08.189Z,20.08
2022-09-28T04:47:48.492Z,18.17
2022-09-28T04:50:22.875Z,16.30
2022-09-28T04:55:37.383Z,22.17
2022-09-28T04:58:07.415Z,22.92
2022-09-28T05:00:37.280Z,19.45
2022-09-28T05:03:16.085Z,18.40
2022-09-28T05:05:59.962Z,22.95
2022-09-28T05:08:38.095Z,17.77
2022-09-28T05:11:21.504Z,19.27
2022-09-28T05:13:53.359Z,19.63
2022-09-28T05:16:34.123Z,19.42
2022-09-28T05:19:06.549Z,18.35
2022-09-28T05:21:36.232Z,19.48
2022-09-28T05:24:07.843Z,16.95
2022-09-28T05:26:56.327Z,15.10
2022-09-28T05:29:32.480Z,17.45
2022-09-28T05:32:10.759Z,15.57
2022-09-28T05:34:40.449Z,16.60
2022-09-28T05:37:14.913Z,19.58
2022-09-28T05:39:52.814Z,17.23
2022-09-28T05:42:21.776Z,18.30
2022-09-28T05:44:49.024Z,18.77
2022-09-28T05:47:16.284Z,17.58
2022-09-28T05:49:43.784Z,16.33
2022-09-28T05:52:10.927Z,17.13
2022-09-28T05:54:40.270Z,17.98
2022-09-28T05:57:09.987Z,18.83
2022-09-28T05:59:40.205Z,19.63
2022-09-28T06:02:13.324Z,15.80
2022-09-28T06:07:12.733Z,22.83
2022-09-28T06:09:39.831Z,17.38
2022-09-28T06:12:09.711Z,17.67
2022-09-28T06:14:39.056Z,17.48
2022-09-28T06:17:06.235Z,19.70
2022-09-28T06:19:35.563Z,18.25
2022-09-28T06:22:02.798Z,18.23
2022-09-28T06:24:29.877Z,17.42
2022-09-28T06:26:57.046Z,21.10
2022-09-28T06:29:24.161Z,18.27
2022-09-28T06:31:54.326Z,17.15
2022-09-28T06:34:21.594Z,16.15
2022-09-28T06:36:49.026Z,16.75
2022-09-28T06:39:16.769Z,19.75
2022-09-28T06:41:47.121Z,18.33
2022-09-28T06:44:16.934Z,16.70
2022-09-28T06:46:43.953Z,18.65
2022-09-28T06:49:10.890Z,17.60
2022-09-28T07:04:01.946Z,17.00
2022-09-28T07:06:31.479Z,14.30
2022-09-28T07:09:22.689Z,14.30
2022-09-28T07:11:49.544Z,15.18
2022-09-28T07:14:32.302Z,15.15
2022-09-28T07:17:13.150Z,14.85
2022-09-28T07:19:40.874Z,16.60
2022-09-28T07:22:07.957Z,16.95
2022-09-28T07:24:37.524Z,17.25
2022-09-28T07:27:05.614Z,14.93
2022-09-28T07:29:32.540Z,17.20
2022-09-28T07:31:59.750Z,15.98
2022-09-28T07:34:26.768Z,18.67
2022-09-28T07:36:58.812Z,19.60
2022-09-28T07:39:25.753Z,20.00
2022-09-28T07:41:59.683Z,20.38
2022-09-28T07:44:29.822Z,16.45
2022-09-28T07:46:56.718Z,20.35
2022-09-28T07:49:23.749Z,18.48
2022-09-28T07:51:50.646Z,14.30
2022-09-28T07:54:17.920Z,13.38
2022-09-28T07:56:45.908Z,13.40
2022-09-28T07:59:17.562Z,15.13
2022-09-28T08:01:44.702Z,14.73
2022-09-28T08:04:11.788Z,15.63
2022-09-28T08:06:40.474Z,15.15
2022-09-28T08:09:07.386Z,19.30
2022-09-28T08:11:34.285Z,16.77
2022-09-28T08:14:02.204Z,14.75
2022-09-28T08:16:30.196Z,17.30
2022-09-28T08:18:57.206Z,14.95
2022-09-28T08:21:42.862Z,14.15
2022-09-28T08:24:09.760Z,17.33
2022-09-28T08:26:36.659Z,15.23
2022-09-28T08:29:06.504Z,16.23
2022-09-28T08:31:33.420Z,14.20
2022-09-28T08:34:00.544Z,20.13
2022-09-28T08:36:28.342Z,16.70
2022-09-28T08:38:56.172Z,10.88
2022-09-28T08:41:39.116Z,12.68
2022-09-28T08:44:24.243Z,11.07
2022-09-28T08:47:06.640Z,12.20
2022-09-28T08:49:44.069Z,11.68
2022-09-28T08:52:16.357Z,10.38
2022-09-28T08:54:54.526Z,9.03
2022-09-28T08:57:46.085Z,9.48
2022-09-28T09:00:39.716Z,10.50
2022-09-28T09:06:17.651Z,11.82
2022-09-28T09:09:10.903Z,10.52
2022-09-28T09:12:12.706Z,11.57
2022-09-28T09:15:11.403Z,11.05
2022-09-28T09:17:43.184Z,9.43
2022-09-28T09:20:30.075Z,10.32
2022-09-28T09:23:01.250Z,8.55
2022-09-28T09:25:40.223Z,9.68
2022-09-28T09:28:28.596Z,9.25
2022-09-28T09:31:09.007Z,10.02
2022-09-28T09:34:13.797Z,11.32
2022-09-28T09:36:53.488Z,8.30
2022-09-28T09:40:00.025Z,9.38
2022-09-28T09:42:56.263Z,11.05
2022-09-28T09:45:51.468Z,7.90
2022-09-28T09:48:29.944Z,8.60
2022-09-28T09:51:19.607Z,8.15
2022-09-28T09:54:03.952Z,8.43
2022-09-28T09:56:49.981Z,8.23
2022-09-28T09:59:45.288Z,7.20
2022-09-28T10:02:33.347Z,6.65
2022-09-28T10:05:21.421Z,6.93
2022-09-28T10:07:52.989Z,7.65
2022-09-28T10:11:20.618Z,6.65
2022-09-28T10:13:49.275Z,3.92
2022-09-28T10:16:19.859Z,5.13
2022-09-28T10:18:49.549Z,5.53
2022-09-28T10:21:21.593Z,5.22
2022-09-28T10:23:56.712Z,5.30
2022-09-28T10:26:40.481Z,6.00
2022-09-28T10:29:26.814Z,4.60
2022-09-28T10:31:54.700Z,5.22
2022-09-28T10:34:31.154Z,6.53
2022-09-28T10:37:11.091Z,4.25
2022-09-28T10:39:56.067Z,5.00
2022-09-28T10:42:30.178Z,4.10
2022-09-28T10:45:17.505Z,6.10
2022-09-28T10:47:45.280Z,3.70
2022-09-28T10:50:27.474Z,4.95
2022-09-28T10:53:09.962Z,4.07
2022-09-28T10:55:37.048Z,7.43
2022-09-28T10:58:41.948Z,6.78
2022-09-28T11:01:20.653Z,5.10
2022-09-28T11:03:59.829Z,5.45
2022-09-28T11:06:36.518Z,6.30
2022-09-28T11:09:20.626Z,7.03
2022-09-28T11:11:47.600Z,6.97
2022-09-28T11:14:39.746Z,95.22
2022-09-28T11:17:47.500Z,5.65
2022-09-28T11:20:28.291Z,4.15
2022-09-28T11:23:02.648Z,4.43
2022-09-28T11:25:31.337Z,6.30
2022-09-28T11:28:04.414Z,3.55
2022-09-28T11:30:45.556Z,8.68
2022-09-28T11:33:20.194Z,3.05
2022-09-28T11:36:16.631Z,5.65
2022-09-28T11:39:08.809Z,4.93
2022-09-28T11:42:06.100Z,3.45
2022-09-28T11:44:44.737Z,3.92
2022-09-28T11:47:39.922Z,5.00
2022-09-28T11:50:29.535Z,15.10
2022-09-28T11:53:17.817Z,8.82
2022-09-28T11:56:29.784Z,5.57
2022-09-28T11:59:06.417Z,16.98
2022-09-28T12:01:44.286Z,20.88
2022-09-28T12:04:40.343Z,5.72
2022-09-28T12:07:18.107Z,12.65
2022-09-28T12:10:16.563Z,14.73
2022-09-28T12:13:02.244Z,17.67
2022-09-28T12:16:15.095Z,32.40
2022-09-28T12:18:56.065Z,4.45
2022-09-28T12:21:42.510Z,9.55
2022-09-28T12:24:17.022Z,9.75
2022-09-28T12:27:38.593Z,6.90
2022-09-28T12:30:16.583Z,17.48
2022-09-28T12:32:44.968Z,8.15
2022-09-28T12:35:19.784Z,5.20
2022-09-28T12:38:34.040Z,1.70
2022-09-28T12:41:13.075Z,4.85
2022-09-28T12:44:10.654Z,5.80
2022-09-28T12:47:27.175Z,10.57
2022-09-28T12:50:39.117Z,3.55
2022-09-28T12:53:53.885Z,4.25
2022-09-28T12:57:30.904Z,16.60
2022-09-28T13:00:25.247Z,7.97
2022-09-28T13:03:15.968Z,6.57
2022-09-28T13:05:57.992Z,6.28
2022-09-28T13:08:48.641Z,13.75
2022-09-28T13:11:42.168Z,10.05
2022-09-28T13:14:44.968Z,3.53
2022-09-28T13:17:23.621Z,7.07
2022-09-28T13:20:17.564Z,3.08
2022-09-28T13:23:11.264Z,4.82
2022-09-28T13:25:49.998Z,4.38
2022-09-28T13:28:26.186Z,7.68
2022-09-28T13:33:38.315Z,10.80
2022-09-28T13:36:25.811Z,16.58
2022-09-28T13:38:54.343Z,8.23
2022-09-28T13:41:36.636Z,8.55
2022-09-28T13:44:41.689Z,7.63
2022-09-28T13:47:54.614Z,4.95
2022-09-28T13:51:09.223Z,7.00
2022-09-28T13:53:44.814Z,7.30
2022-09-28T13:56:24.506Z,6.15
2022-09-28T13:59:16.488Z,7.82
2022-09-28T14:02:09.616Z,9.02
2022-09-28T14:04:57.568Z,24.58
2022-09-28T14:07:57.328Z,9.85
2022-09-28T14:10:48.799Z,11.48
2022-09-28T14:13:41.233Z,8.98
2022-09-28T14:16:27.536Z,10.77
2022-09-28T14:19:03.026Z,5.63
2022-09-28T14:22:03.476Z,6.65
2022-09-28T14:25:18.293Z,8.50
2022-09-28T14:28:28.236Z,6.22
2022-09-28T14:30:58.202Z,6.25
2022-09-28T14:33:31.875Z,6.07
2022-09-28T14:36:07.214Z,7.13
2022-09-28T14:39:08.452Z,9.30
2022-09-28T14:41:41.806Z,6.88
2022-09-28T14:44:10.803Z,8.05
2022-09-28T14:46:43.381Z,71.68
2022-09-28T14:49:24.923Z,6.00
2022-09-28T14:51:55.897Z,9.40
2022-09-28T14:54:37.672Z,6.45
2022-09-28T14:57:08.073Z,9.93
2022-09-28T14:59:43.562Z,9.43
2022-09-28T15:02:31.158Z,8.25
2022-09-28T15:05:16.119Z,7.47
2022-09-28T15:07:52.984Z,7.00
2022-09-28T15:10:37.546Z,9.27
2022-09-28T15:13:16.560Z,13.07
2022-09-28T15:15:52.775Z,6.03
2022-09-28T15:18:43.626Z,8.13
2022-09-28T15:21:12.418Z,11.20
2022-09-28T15:23:44.236Z,5.72
2022-09-28T15:26:32.305Z,6.57
2022-09-28T15:29:03.334Z,5.60
2022-09-28T15:31:35.791Z,7.70
2022-09-28T15:34:21.613Z,13.40
2022-09-28T15:36:49.949Z,11.02
2022-09-28T15:39:31.315Z,12.50
2022-09-28T15:42:00.041Z,18.73
2022-09-28T15:44:36.207Z,40.47
2022-09-28T15:47:27.990Z,14.15
2022-09-28T15:50:01.269Z,19.20
2022-09-28T15:53:01.123Z,17.98
2022-09-28T15:55:43.862Z,11.82
2022-09-28T15:58:22.949Z,14.05
2022-09-28T16:01:12.204Z,13.82
2022-09-28T16:03:39.189Z,16.10
2022-09-28T16:06:09.931Z,20.80
2022-09-28T16:08:38.412Z,14.07
2022-09-28T16:11:15.244Z,18.83
2022-09-28T16:14:17.004Z,78.80
2022-09-28T16:16:48.862Z,77.60
2022-09-28T16:19:29.713Z,19.75
2022-09-28T16:22:03.981Z,13.48
2022-09-28T16:24:41.005Z,14.55
2022-09-28T16:27:38.893Z,20.92
2022-09-28T16:30:29.710Z,25.42
2022-09-28T16:33:08.633Z,37.58
2022-09-28T16:35:35.488Z,30.73
2022-09-28T16:38:09.122Z,34.97
2022-09-28T16:40:50.569Z,39.70
2022-09-28T16:43:34.982Z,35.35
2022-09-28T16:46:13.290Z,37.65
2022-09-28T16:48:49.282Z,56.72
2022-09-28T16:51:21.705Z,48.35
2022-09-28T16:54:07.878Z,67.68
2022-09-28T16:56:36.629Z,29.08
2022-09-28T16:59:04.493Z,29.90
2022-09-28T17:01:31.830Z,27.20
2022-09-28T17:03:58.898Z,35.17
2022-09-28T17:06:27.036Z,46.25
2022-09-28T17:08:59.416Z,25.13
2022-09-28T17:11:26.487Z,22.77
2022-09-28T17:13:56.866Z,23.23
2022-09-28T17:19:23.861Z,20.63
2022-09-28T17:21:52.751Z,17.65
2022-09-28T17:24:20.474Z,24.13
2022-09-28T17:26:52.097Z,19.95
2022-09-28T17:29:19.531Z,21.17
2022-09-28T17:31:47.978Z,45.58
2022-09-28T17:34:16.655Z,34.67
2022-09-28T17:36:45.068Z,31.30
2022-09-28T17:39:19.811Z,27.42
2022-09-28T17:41:46.901Z,26.48
2022-09-28T17:44:16.548Z,25.65
2022-09-28T17:46:48.665Z,27.40
2022-09-28T17:49:16.977Z,31.40
2022-09-28T17:51:44.103Z,32.90
2022-09-28T17:54:12.929Z,32.28
2022-09-28T17:56:40.104Z,37.15
2022-09-28T17:59:12.875Z,41.28
2022-09-28T18:01:41.083Z,44.70
2022-09-28T18:04:19.191Z,27.73
2022-09-28T18:06:55.219Z,30.83
2022-09-28T18:09:25.300Z,31.35
2022-09-28T18:12:03.313Z,34.15
2022-09-28T18:14:36.090Z,34.72
2022-09-28T18:17:03.412Z,31.48
2022-09-28T18:19:32.395Z,31.90
2022-09-28T18:22:01.330Z,27.52
2022-09-28T18:24:28.794Z,33.05
2022-09-28T18:26:55.832Z,27.02
2022-09-28T18:29:22.893Z,24.55
2022-09-28T18:31:50.387Z,25.40
2022-09-28T18:34:17.923Z,23.70
2022-09-28T18:36:45.544Z,34.85
2022-09-28T18:39:12.716Z,30.15
2022-09-28T18:41:39.916Z,28.38
2022-09-28T18:44:06.879Z,24.50
2022-09-28T18:46:37.039Z,27.88
2022-09-28T18:49:05.375Z,31.77
2022-09-28T18:51:32.634Z,37.97
2022-09-28T18:54:07.693Z,42.88
2022-09-28T18:56:37.389Z,49.63
2022-09-28T18:59:11.735Z,49.97
2022-09-28T19:01:41.657Z,53.33
2022-09-28T19:04:10.800Z,56.55
2022-09-28T19:06:42.972Z,64.75
2022-09-28T19:09:10.456Z,53.37
2022-09-28T19:11:37.478Z,48.30
2022-09-28T19:14:06.415Z,41.63
2022-09-28T19:16:36.138Z,50.95
2022-09-28T19:19:03.527Z,47.33
2022-09-28T19:21:31.970Z,56.75
2022-09-28T19:24:03.436Z,58.72
2022-09-28T19:26:32.817Z,62.25
2022-09-28T19:29:00.269Z,58.60
2022-09-28T19:31:29.091Z,61.63
2022-09-28T19:33:56.552Z,64.32
2022-09-28T19:36:26.166Z,62.20
2022-09-28T19:38:53.569Z,57.67
2022-09-28T19:41:43.940Z,57.78
2022-09-28T19:44:27.409Z,63.42
2022-09-28T19:47:08.251Z,37.28
2022-09-28T19:49:38.980Z,31.77
2022-09-28T19:52:15.932Z,53.22
2022-09-28T19:54:56.599Z,60.92
2022-09-28T19:57:30.643Z,40.70
2022-09-28T20:00:02.123Z,32.72
2022-09-28T20:02:29.913Z,26.95
2022-09-28T20:04:56.910Z,19.98
2022-09-28T20:07:23.958Z,24.85
2022-09-28T20:09:51.656Z,20.90
2022-09-28T20:12:18.746Z,14.43
2022-09-28T20:14:45.724Z,14.77
2022-09-28T20:17:12.863Z,13.95
2022-09-28T20:19:39.773Z,15.40
2022-09-28T20:22:09.773Z,17.65
2022-09-28T20:24:36.679Z,14.68
2022-09-28T20:27:03.663Z,14.90
2022-09-28T20:29:33.354Z,11.45
2022-09-28T20:32:01.222Z,10.48
2022-09-28T20:34:28.202Z,49.33
2022-09-28T20:36:55.504Z,8.27
2022-09-28T20:39:25.178Z,8.70
2022-09-28T20:41:52.079Z,10.40
2022-09-28T20:44:19.131Z,22.20
2022-09-28T20:46:51.252Z,40.63
2022-09-28T20:49:18.190Z,16.88
2022-09-28T20:51:45.152Z,17.77
2022-09-28T20:54:12.175Z,15.15
2022-09-28T20:56:39.320Z,12.70
2022-09-28T20:59:12.058Z,30.30
2022-09-28T21:01:39.884Z,22.33
2022-09-28T21:04:09.822Z,11.23
2022-09-28T21:06:40.403Z,8.10
2022-09-28T21:09:09.572Z,16.88
2022-09-28T21:11:37.620Z,62.60
2022-09-28T21:14:08.629Z,22.08
2022-09-28T21:16:36.059Z,10.82
2022-09-28T21:19:04.281Z,13.65
2022-09-28T21:21:31.443Z,22.00
2022-09-28T21:23:59.011Z,16.80
2022-09-28T21:26:29.067Z,10.95
2022-09-28T21:29:03.427Z,15.55
2022-09-28T21:31:45.648Z,11.82
2022-09-28T21:34:19.332Z,12.40
2022-09-28T21:36:51.461Z,11.88
2022-09-28T21:39:19.410Z,11.40
2022-09-28T21:41:46.875Z,31.00
2022-09-28T21:44:13.854Z,11.68
2022-09-28T21:46:42.085Z,14.73
2022-09-28T21:49:10.842Z,11.63
2022-09-28T21:51:38.087Z,11.77
2022-09-28T21:54:05.508Z,10.80
2022-09-28T21:56:32.489Z,9.98
2022-09-28T21:59:01.255Z,11.98
2022-09-28T22:01:29.337Z,9.45
2022-09-28T22:03:57.234Z,11.18
2022-09-28T22:06:30.210Z,10.07
2022-09-28T22:08:57.668Z,9.20
2022-09-28T22:11:27.851Z,11.55
2022-09-28T22:14:00.346Z,8.13
2022-09-28T22:16:30.784Z,9.82
2022-09-28T22:18:59.064Z,8.02
2022-09-28T22:21:32.669Z,6.88
2022-09-28T22:24:06.436Z,6.82
2022-09-28T22:26:36.717Z,8.57
2022-09-28T22:29:09.520Z,8.55
2022-09-28T22:31:39.881Z,8.95
2022-09-28T22:34:08.392Z,10.63
2022-09-28T22:36:37.504Z,24.70
2022-09-28T22:39:04.953Z,24.92
2022-09-28T22:41:32.360Z,10.93
2022-09-28T22:43:59.917Z,9.40
2022-09-28T22:46:29.397Z,10.25
2022-09-28T22:48:59.824Z,7.47
2022-09-28T22:51:29.843Z,7.13
2022-09-28T22:53:57.628Z,7.38
2022-09-28T22:56:25.204Z,6.80
2022-09-28T22:58:52.137Z,6.57
2022-09-28T23:01:23.221Z,7.75
2022-09-28T23:03:52.392Z,7.28
2022-09-28T23:06:22.536Z,6.57
2022-09-28T23:08:51.348Z,7.03
2022-09-28T23:11:19.317Z,8.13
2022-09-28T23:13:53.983Z,6.07
2022-09-28T23:16:23.324Z,6.75
2022-09-28T23:18:50.455Z,7.20
2022-09-28T23:21:21.490Z,9.18
2022-09-28T23:24:01.484Z,9.13
2022-09-28T23:26:31.922Z,12.90
2022-09-28T23:28:59.895Z,11.38
2022-09-28T23:31:32.634Z,9.40
2022-09-28T23:34:01.701Z,10.50
2022-09-28T23:36:29.281Z,21.08
2022-09-28T23:38:56.420Z,12.10
2022-09-28T23:41:23.494Z,11.30
2022-09-28T23:43:50.517Z,10.38
2022-09-28T23:46:20.931Z,10.07
2022-09-28T23:48:49.515Z,11.02
2022-09-28T23:51:16.895Z,10.82
2022-09-28T23:53:43.992Z,12.70
2022-09-28T23:56:11.480Z,11.93
2022-09-28T23:58:38.592Z,10.95
